Change the Weather History Date:

Sunday, September 9, 2012

  Actual Average Record
Temperature  
Mean Temperature 52 °F -  
Max Temperature 64 °F 69 °F 87 °F (2002)
Min Temperature 41 °F 45 °F 28 °F (1981)
Degree Days  
Heating Degree Days 12    
Growing Degree Days 2 (Base 50)    
Moisture  
Dew Point 43 °F    
Average Humidity 72    
Maximum Humidity 100    
Minimum Humidity 31    
Precipitation  
Precipitation 0.00 in - - ()
Sea Level Pressure  
Sea Level Pressure 29.96 in    
Wind  
Wind Speed 7 mph (WNW)    
Max Wind Speed 17 mph    
Max Gust Speed 26 mph    
Visibility 10 miles    
Events      
Averages and records for this station are not official NWS values.
T = Trace of Precipitation, MM = Missing Value Source: NWS Daily Summary

Daily Weather History Graph

Daily Weather History Graph

Search for Another Location

Airport or City:

Trip Planner

Search our weather history database for the weather conditions in past years. The results will help you decide how hot, cold, wet, or windy it might be!

Date:

Astronomy

Sep. 09, 2012 Rise Set
Actual Time 7:09 AM EDT 8:00 PM EDT
Civil Twilight 6:38 AM EDT 8:30 PM EDT
Nautical Twilight 6:02 AM EDT 9:06 PM EDT
Astronomical Twilight 5:23 AM EDT 9:44 PM EDT
Moon 12:22 AM EDT (9/9) 3:59 PM EDT (9/9)
Length of Visible Light 13h 52m
Length of Day
12h 51m
Last Quarter, 39% of the Moon is Illuminated
Sep 9
Last Quarter
Sep 15
New
Sep 22
First Quarter
Sep 29
Full
Oct 8
Last Quarter

Hourly Weather History & Observations

Time (EDT) Temp. Windchill Dew Point Humidity Pressure Visibility Wind Dir Wind Speed Gust Speed Precip Events Conditions
12:15 AM 48.2 °F - 46.4 °F 93% 29.81 in 10.0 mi West 6.9 mph - N/A   Clear
12:35 AM 48.2 °F - 46.4 °F 93% 29.82 in 10.0 mi WSW 6.9 mph - N/A   Clear
12:55 AM 48.2 °F - 46.4 °F 93% 29.82 in 10.0 mi WSW 6.9 mph - N/A   Scattered Clouds
1:15 AM 48.2 °F - 44.6 °F 87% 29.82 in 10.0 mi West 5.8 mph - N/A   Mostly Cloudy
1:35 AM 46.4 °F 42.9 °F 44.6 °F 93% 29.83 in 10.0 mi West 6.9 mph - N/A   Mostly Cloudy
1:55 AM 46.4 °F 44.3 °F 44.6 °F 93% 29.83 in 10.0 mi West 4.6 mph - N/A   Mostly Cloudy
2:15 AM 46.4 °F 45.2 °F 44.6 °F 93% 29.84 in 10.0 mi West 3.5 mph - N/A   Partly Cloudy
2:35 AM 48.2 °F - 44.6 °F 87% 29.84 in 10.0 mi West 3.5 mph - N/A   Clear
2:55 AM 46.4 °F 45.2 °F 44.6 °F 93% 29.84 in 10.0 mi West 3.5 mph - N/A   Clear
3:15 AM 46.4 °F 44.3 °F 44.6 °F 93% 29.85 in 10.0 mi West 4.6 mph - N/A   Clear
3:35 AM 46.4 °F 44.3 °F 44.6 °F 93% 29.85 in 10.0 mi West 4.6 mph - N/A   Clear
3:55 AM 44.6 °F 42.2 °F 44.6 °F 100% 29.86 in 10.0 mi West 4.6 mph - N/A   Clear
4:15 AM 44.6 °F 42.2 °F 44.6 °F 100% 29.86 in 10.0 mi West 4.6 mph - N/A   Clear
4:35 AM 44.6 °F 42.2 °F 44.6 °F 100% 29.87 in 10.0 mi West 4.6 mph - N/A   Clear
4:55 AM 44.6 °F 43.1 °F 44.6 °F 100% 29.88 in 10.0 mi West 3.5 mph - N/A   Clear
5:15 AM 44.6 °F 41.4 °F 44.6 °F 100% 29.88 in 10.0 mi West 5.8 mph - N/A   Clear
5:35 AM 42.8 °F 41.1 °F 42.8 °F 100% 29.89 in 10.0 mi WSW 3.5 mph - N/A   Clear
5:55 AM 42.8 °F 41.1 °F 41.0 °F 93% 29.89 in 10.0 mi West 3.5 mph - N/A   Clear
6:15 AM 42.8 °F 40.1 °F 41.0 °F 93% 29.90 in 10.0 mi West 4.6 mph - N/A   Clear
6:35 AM 42.8 °F 41.1 °F 41.0 °F 93% 29.91 in 10.0 mi West 3.5 mph - N/A   Clear
6:55 AM 41.0 °F - 41.0 °F 100% 29.91 in 10.0 mi Calm Calm - N/A   Clear
7:15 AM 41.0 °F 39.0 °F 39.2 °F 93% 29.93 in 10.0 mi West 3.5 mph - N/A   Mostly Cloudy
7:35 AM 42.8 °F 41.1 °F 42.8 °F 100% 29.93 in 10.0 mi WSW 3.5 mph - N/A   Mostly Cloudy
7:55 AM 42.8 °F 39.3 °F 42.8 °F 100% 29.95 in 10.0 mi WSW 5.8 mph - N/A   Partly Cloudy
8:15 AM 44.6 °F - 44.6 °F 100% 29.95 in 10.0 mi Calm Calm - N/A   Clear
8:35 AM 51.8 °F - 46.4 °F 82% 29.96 in 10.0 mi Calm Calm - N/A   Clear
8:55 AM 53.6 °F - 44.6 °F 72% 29.96 in 10.0 mi NNW 3.5 mph - N/A   Clear
9:15 AM 55.4 °F - 42.8 °F 63% 29.97 in 10.0 mi NW 6.9 mph - N/A   Clear
9:35 AM 57.2 °F - 41.0 °F 55% 29.97 in 10.0 mi NW 9.2 mph - N/A   Clear
9:55 AM 57.2 °F - 41.0 °F 55% 29.98 in 10.0 mi NNW 9.2 mph - N/A   Clear
10:15 AM 59.0 °F - 37.4 °F 45% 29.98 in 10.0 mi NNW 12.7 mph 18.4 mph N/A   Clear
10:35 AM 60.8 °F - 35.6 °F 39% 29.99 in 10.0 mi NNW 12.7 mph 16.1 mph N/A   Clear
10:55 AM 60.8 °F - 33.8 °F 36% 29.99 in 10.0 mi NW 12.7 mph 20.7 mph N/A   Clear
11:15 AM 60.8 °F - 35.6 °F 39% 30.00 in 10.0 mi NNW 10.4 mph - N/A   Partly Cloudy
11:35 AM 60.8 °F - 30.2 °F 31% 30.00 in 10.0 mi NNW 12.7 mph 20.7 mph N/A   Partly Cloudy
11:55 AM 60.8 °F - 33.8 °F 36% 30.01 in 10.0 mi NNW 12.7 mph 18.4 mph N/A   Clear
12:55 PM 62.6 °F - 39.2 °F 42% 30.02 in 10.0 mi NNW 16.1 mph 20.7 mph N/A   Partly Cloudy
1:15 PM 62.6 °F - 39.2 °F 42% 30.01 in 10.0 mi NW 17.3 mph 20.7 mph N/A   Scattered Clouds
1:35 PM 62.6 °F - 39.2 °F 42% 30.02 in 10.0 mi NW 17.3 mph 24.2 mph N/A   Clear
1:55 PM 62.6 °F - 39.2 °F 42% 30.02 in 10.0 mi NNW 13.8 mph 21.9 mph N/A   Partly Cloudy
2:15 PM 64.4 °F - 41.0 °F 42% 30.03 in 10.0 mi NNW 12.7 mph 20.7 mph N/A   Partly Cloudy
2:35 PM 64.4 °F - 39.2 °F 40% 30.03 in 10.0 mi North 15.0 mph 23.0 mph N/A   Partly Cloudy
2:55 PM 64.4 °F - 41.0 °F 42% 30.03 in 10.0 mi NNW 10.4 mph 19.6 mph N/A   Partly Cloudy
3:15 PM 64.4 °F - 41.0 °F 42% 30.03 in 10.0 mi North 13.8 mph 20.7 mph N/A   Clear
3:35 PM 64.4 °F - 42.8 °F 45% 30.03 in 10.0 mi NNW 12.7 mph 21.9 mph N/A   Partly Cloudy
3:55 PM 64.4 °F - 42.8 °F 45% 30.03 in 10.0 mi NW 15.0 mph 18.4 mph N/A   Mostly Cloudy
4:15 PM 64.4 °F - 42.8 °F 45% 30.03 in 10.0 mi NNW 16.1 mph 21.9 mph N/A   Overcast
4:35 PM 62.6 °F - 44.6 °F 52% 30.03 in 10.0 mi NNW 12.7 mph 16.1 mph N/A   Overcast
4:55 PM 64.4 °F - 42.8 °F 45% 30.03 in 10.0 mi NNW 13.8 mph 24.2 mph N/A   Mostly Cloudy
5:15 PM 64.4 °F - 42.8 °F 45% 30.03 in 10.0 mi NNW 13.8 mph 26.5 mph N/A   Scattered Clouds
6:15 PM 62.6 °F - 46.4 °F 55% 30.05 in 10.0 mi NW 13.8 mph 24.2 mph N/A   Clear
6:35 PM 62.6 °F - 46.4 °F 55% 30.05 in 10.0 mi NW 15.0 mph - N/A   Clear
8:15 PM 57.2 °F - 48.2 °F 72% 30.07 in 10.0 mi WNW 5.8 mph - N/A   Clear
8:35 PM 55.4 °F - 48.2 °F 77% 30.08 in 10.0 mi West 3.5 mph - N/A   Clear
8:55 PM 55.4 °F - 48.2 °F 77% 30.08 in 10.0 mi WSW 4.6 mph - N/A   Partly Cloudy
9:55 PM 53.6 °F - 48.2 °F 82% 30.09 in 10.0 mi WNW 6.9 mph - N/A   Clear
10:15 PM 51.8 °F - 48.2 °F 88% 30.09 in 10.0 mi Calm Calm - N/A   Clear
10:35 PM 51.8 °F - 48.2 °F 88% 30.09 in 10.0 mi West 4.6 mph - N/A   Clear
10:55 PM 51.8 °F - 48.2 °F 88% 30.09 in 10.0 mi West 6.9 mph - N/A   Clear